createdAt,value
2023-04-16T00:02:07.773Z,96084.06
2023-04-16T00:04:36.330Z,96082.13
2023-04-16T00:07:04.736Z,96077.03
2023-04-16T00:09:33.120Z,96078.53
2023-04-16T00:12:01.479Z,96075.09
2023-04-16T00:14:30.728Z,96079.50
2023-04-16T00:16:59.149Z,96080.75
2023-04-16T00:19:29.020Z,96083.25
2023-04-16T00:21:57.365Z,96082.56
2023-04-16T00:24:25.744Z,96087.97
2023-04-16T00:26:54.115Z,96088.78
2023-04-16T00:29:22.519Z,96091.28
2023-04-16T00:31:50.998Z,96093.09
2023-04-16T00:34:19.408Z,96092.13
2023-04-16T00:36:49.251Z,96094.22
2023-04-16T00:39:17.580Z,96093.22
2023-04-16T00:41:46.092Z,96095.84
2023-04-16T00:44:14.511Z,96092.56
2023-04-16T00:46:43.815Z,96095.50
2023-04-16T00:49:12.743Z,96106.81
2023-04-16T00:51:41.302Z,96107.91
2023-04-16T00:54:10.997Z,96096.72
2023-04-16T00:56:39.851Z,96096.06
2023-04-16T00:59:08.744Z,96094.44
2023-04-16T01:01:37.421Z,96088.50
2023-04-16T01:04:07.202Z,96095.97
2023-04-16T01:06:36.377Z,96093.66
2023-04-16T01:09:04.966Z,96092.28
2023-04-16T01:11:34.686Z,96089.66
2023-04-16T01:14:03.052Z,96095.59
2023-04-16T01:16:31.500Z,96093.94
2023-04-16T01:19:03.920Z,96098.91
2023-04-16T01:21:33.630Z,96099.59
2023-04-16T01:24:04.319Z,96100.28
2023-04-16T01:26:32.945Z,96101.91
2023-04-16T01:29:01.449Z,96100.41
2023-04-16T01:31:29.912Z,96103.03
2023-04-16T01:33:58.299Z,96104.84
2023-04-16T01:36:32.974Z,96100.16
2023-04-16T01:39:01.408Z,96109.03
2023-04-16T01:41:29.768Z,96103.38
2023-04-16T01:43:58.150Z,96096.91
2023-04-16T01:46:29.944Z,96107.28
2023-04-16T01:48:59.026Z,96106.72
2023-04-16T01:51:28.117Z,96097.91
2023-04-16T01:53:58.383Z,96094.44
2023-04-16T01:56:26.896Z,96104.25
2023-04-16T01:58:55.261Z,96105.91
2023-04-16T02:01:23.891Z,96096.38
2023-04-16T02:03:52.906Z,96095.53
2023-04-16T02:06:21.419Z,96104.97
2023-04-16T02:08:49.765Z,96111.97
2023-04-16T02:11:19.531Z,96102.56
2023-04-16T02:13:47.987Z,96097.22
2023-04-16T02:16:18.677Z,96108.66
2023-04-16T02:18:47.103Z,96106.88
2023-04-16T02:21:15.495Z,96124.69
2023-04-16T02:23:47.578Z,96116.66
2023-04-16T02:26:16.006Z,96122.59
2023-04-16T02:28:50.306Z,96120.66
2023-04-16T02:31:19.700Z,96123.28
2023-04-16T02:33:48.150Z,96126.72
2023-04-16T02:36:16.687Z,96124.25
2023-04-16T02:38:45.011Z,96134.63
2023-04-16T02:41:13.408Z,96129.06
2023-04-16T02:43:41.970Z,96129.91
2023-04-16T02:46:11.677Z,96132.66
2023-04-16T02:48:40.028Z,96123.28
2023-04-16T02:51:08.491Z,96128.69
2023-04-16T02:53:36.853Z,96131.31
2023-04-16T02:56:08.463Z,96126.72
2023-04-16T02:58:36.998Z,96126.72
2023-04-16T03:01:05.691Z,96131.31
2023-04-16T03:03:35.608Z,96133.25
2023-04-16T03:06:05.066Z,96128.97
2023-04-16T03:08:33.609Z,96127.16
2023-04-16T03:11:02.097Z,96126.06
2023-04-16T03:13:30.683Z,96125.91
2023-04-16T03:15:59.058Z,96131.00
2023-04-16T03:18:27.503Z,96135.28
2023-04-16T03:20:57.253Z,96138.75
2023-04-16T03:23:25.578Z,96145.94
2023-04-16T03:25:53.993Z,96152.31
2023-04-16T03:28:22.325Z,96151.19
2023-04-16T03:30:53.822Z,96148.44
2023-04-16T03:33:22.805Z,96150.91
2023-04-16T03:35:58.048Z,96154.22
2023-04-16T03:38:26.871Z,96161.78
2023-04-16T03:40:55.290Z,96165.28
2023-04-16T03:43:23.758Z,96162.25
2023-04-16T03:45:52.156Z,96159.47
2023-04-16T03:48:20.521Z,96173.44
2023-04-16T03:50:49.138Z,96172.75
2023-04-16T03:53:19.212Z,96170.94
2023-04-16T03:55:51.911Z,96175.38
2023-04-16T03:58:20.876Z,96168.31
2023-04-16T04:00:49.371Z,96170.13
2023-04-16T04:03:18.658Z,96177.19
2023-04-16T04:05:47.175Z,96180.91
2023-04-16T04:08:15.493Z,96179.13
2023-04-16T04:10:45.896Z,96177.47
2023-04-16T04:13:14.280Z,96178.28
2023-04-16T04:15:42.606Z,96177.47
2023-04-16T04:18:11.075Z,96174.16
2023-04-16T04:20:40.895Z,96173.19
2023-04-16T04:23:09.285Z,96178.59
2023-04-16T04:25:37.719Z,96174.16
2023-04-16T04:28:10.315Z,96173.34
2023-04-16T04:30:38.735Z,96182.84
2023-04-16T04:33:09.863Z,96182.84
2023-04-16T04:35:38.306Z,96179.94
2023-04-16T04:38:08.580Z,96180.34
2023-04-16T04:40:36.963Z,96182.81
2023-04-16T04:43:05.902Z,96183.78
2023-04-16T04:45:37.494Z,96188.22
2023-04-16T04:48:08.232Z,96197.06
2023-04-16T04:50:37.997Z,96199.69
2023-04-16T04:53:10.175Z,96204.81
2023-04-16T04:55:38.802Z,96210.19
2023-04-16T04:58:09.100Z,96214.63
2023-04-16T05:00:38.825Z,96216.41
2023-04-16T05:03:11.623Z,96215.72
2023-04-16T05:05:40.245Z,96216.28
2023-04-16T05:08:10.531Z,96216.53
2023-04-16T05:10:38.921Z,96223.44
2023-04-16T05:13:11.607Z,96227.88
2023-04-16T05:15:41.444Z,96224.44
2023-04-16T05:18:10.522Z,96232.16
2023-04-16T05:20:44.077Z,96234.63
2023-04-16T05:23:12.354Z,96238.91
2023-04-16T05:25:40.703Z,96242.22
2023-04-16T05:28:11.164Z,96234.22
2023-04-16T05:30:40.914Z,96239.28
2023-04-16T05:33:10.494Z,96247.34
2023-04-16T05:35:38.927Z,96250.78
2023-04-16T05:38:09.232Z,96244.03
2023-04-16T05:40:38.161Z,96253.69
2023-04-16T05:43:08.803Z,96259.94
2023-04-16T05:45:40.873Z,96256.78
2023-04-16T05:48:10.901Z,96256.78
2023-04-16T05:50:39.409Z,96255.94
2023-04-16T05:53:10.987Z,96243.34
2023-04-16T05:55:39.349Z,96245.13
2023-04-16T05:58:09.997Z,96243.34
2023-04-16T06:00:38.452Z,96242.09
2023-04-16T06:03:08.535Z,96240.97
2023-04-16T06:05:38.521Z,96245.41
2023-04-16T06:08:07.702Z,96260.88
2023-04-16T06:10:36.342Z,96256.28
2023-04-16T06:13:04.763Z,96257.38
2023-04-16T06:15:33.185Z,96257.22
2023-04-16T06:18:01.609Z,96260.69
2023-04-16T06:20:30.026Z,96256.09
2023-04-16T06:22:59.717Z,96255.97
2023-04-16T06:25:28.125Z,96249.44
2023-04-16T06:27:56.548Z,96253.75
2023-04-16T06:30:24.923Z,96254.09
2023-04-16T06:32:54.504Z,96259.22
2023-04-16T06:35:23.013Z,96260.03
2023-04-16T06:37:51.577Z,96254.78
2023-04-16T06:40:21.310Z,96260.72
2023-04-16T06:42:49.766Z,96265.03
2023-04-16T06:45:18.284Z,96270.81
2023-04-16T06:47:48.045Z,96274.41
2023-04-16T06:50:16.588Z,96275.25
2023-04-16T06:52:45.360Z,96280.34
2023-04-16T06:55:13.765Z,96281.56
2023-04-16T06:57:43.768Z,96278.53
2023-04-16T07:00:13.382Z,96276.56
2023-04-16T07:02:41.912Z,96276.72
2023-04-16T07:05:10.949Z,96281.66
2023-04-16T07:07:39.312Z,96285.00
2023-04-16T07:10:09.980Z,96282.06
2023-04-16T07:12:40.377Z,96276.38
2023-04-16T07:15:11.831Z,96281.03
2023-04-16T07:17:45.460Z,96278.94
2023-04-16T07:20:13.903Z,96271.13
2023-04-16T07:22:42.290Z,96280.25
2023-04-16T07:25:15.443Z,96279.78
2023-04-16T07:27:43.800Z,96288.06
2023-04-16T07:30:13.673Z,96281.66
2023-04-16T07:32:47.030Z,96289.63
2023-04-16T07:35:15.869Z,96292.78
2023-04-16T07:37:44.246Z,96287.91
2023-04-16T07:40:13.318Z,96297.16
2023-04-16T07:42:41.728Z,96293.72
2023-04-16T07:45:13.314Z,96299.41
2023-04-16T07:47:41.729Z,96294.81
2023-04-16T07:50:12.033Z,96293.94
2023-04-16T07:52:46.806Z,96295.94
2023-04-16T07:55:15.384Z,96289.56
2023-04-16T07:57:43.742Z,96301.13
2023-04-16T08:00:14.246Z,96297.88
2023-04-16T08:02:43.181Z,96296.97
2023-04-16T08:05:12.558Z,96293.91
2023-04-16T08:07:41.378Z,96297.50
2023-04-16T08:10:11.661Z,96297.78
2023-04-16T08:12:40.159Z,96302.09
2023-04-16T08:15:11.066Z,96304.44
2023-04-16T08:17:40.968Z,96310.19
2023-04-16T08:20:15.762Z,96309.91
2023-04-16T08:22:46.235Z,96311.31
2023-04-16T08:25:14.635Z,96307.22
2023-04-16T08:27:43.028Z,96311.53
2023-04-16T08:30:12.189Z,96312.50
2023-04-16T08:32:42.173Z,96312.88
2023-04-16T08:35:11.447Z,96319.69
2023-04-16T08:37:46.541Z,96317.00
2023-04-16T08:40:15.129Z,96325.78
2023-04-16T08:42:49.883Z,96324.47
2023-04-16T08:45:19.132Z,96330.41
2023-04-16T08:47:49.950Z,96334.25
2023-04-16T08:50:19.643Z,96325.84
2023-04-16T08:52:52.944Z,96330.66
2023-04-16T08:55:26.207Z,96324.75
2023-04-16T08:57:59.775Z,96335.66
2023-04-16T09:00:30.893Z,96322.22
2023-04-16T09:03:01.661Z,96330.47
2023-04-16T09:05:30.920Z,96329.66
2023-04-16T09:07:59.299Z,96332.44
2023-04-16T09:10:28.516Z,96342.19
2023-04-16T09:12:57.987Z,96337.72
2023-04-16T09:15:27.456Z,96338.59
2023-04-16T09:17:56.967Z,96340.59
2023-04-16T09:20:26.980Z,96335.19
2023-04-16T09:22:57.104Z,96343.44
2023-04-16T09:25:26.604Z,96339.50
2023-04-16T09:27:57.768Z,96340.31
2023-04-16T09:30:27.449Z,96333.56
2023-04-16T09:33:16.733Z,96336.88
2023-04-16T09:35:50.493Z,96336.06
2023-04-16T09:38:19.086Z,96344.00
2023-04-16T09:40:48.448Z,96329.81
2023-04-16T09:43:18.526Z,96343.19
2023-04-16T09:45:51.936Z,96333.47
2023-04-16T09:48:30.992Z,96340.38
2023-04-16T09:51:01.325Z,96337.75
2023-04-16T09:53:32.082Z,96339.59
2023-04-16T09:56:01.771Z,96345.19
2023-04-16T09:58:30.824Z,96339.91
2023-04-16T10:01:02.420Z,96344.34
2023-04-16T10:03:31.875Z,96348.00
2023-04-16T10:06:10.474Z,96348.16
2023-04-16T10:08:38.866Z,96342.72
2023-04-16T10:11:07.591Z,96343.88
2023-04-16T10:13:37.405Z,96343.19
2023-04-16T10:16:06.348Z,96349.47
2023-04-16T10:18:36.465Z,96344.84
2023-04-16T10:21:06.746Z,96348.84
2023-04-16T10:23:35.594Z,96349.97
2023-04-16T10:26:04.004Z,96353.25
2023-04-16T10:28:35.279Z,96348.13
2023-04-16T10:31:06.612Z,96343.81
2023-04-16T10:33:37.516Z,96341.97
2023-04-16T10:36:14.421Z,96345.78
2023-04-16T10:38:46.569Z,96350.75
2023-04-16T10:41:15.236Z,96339.13
2023-04-16T10:43:46.165Z,96336.13
2023-04-16T10:46:22.525Z,96347.03
2023-04-16T10:48:52.238Z,96347.69
2023-04-16T10:51:30.084Z,96343.66
2023-04-16T10:54:03.609Z,96343.63
2023-04-16T10:56:34.635Z,96341.78
2023-04-16T10:59:06.036Z,96340.25
2023-04-16T11:01:35.918Z,96339.25
2023-04-16T11:04:29.710Z,96345.03
2023-04-16T11:07:16.608Z,96346.00
2023-04-16T11:09:52.228Z,96342.47
2023-04-16T11:12:22.495Z,96337.00
2023-04-16T11:14:52.572Z,96331.81
2023-04-16T11:17:22.429Z,96342.56
2023-04-16T11:19:53.518Z,96352.84
2023-04-16T11:22:23.700Z,96350.69
2023-04-16T11:24:56.100Z,96336.19
2023-04-16T11:27:24.904Z,96344.91
2023-04-16T11:30:00.741Z,96340.59
2023-04-16T11:32:32.027Z,96345.53
2023-04-16T11:35:03.617Z,96344.88
2023-04-16T11:37:38.014Z,96348.72
2023-04-16T11:40:08.212Z,96346.22
2023-04-16T11:42:37.886Z,96346.72
2023-04-16T11:45:07.556Z,96355.78
2023-04-16T11:47:45.887Z,96350.09
2023-04-16T11:50:21.946Z,96345.19
2023-04-16T11:52:53.477Z,96341.56
2023-04-16T11:55:22.294Z,96344.41
2023-04-16T11:57:52.210Z,96353.78
2023-04-16T12:00:24.537Z,96346.47
2023-04-16T12:02:55.460Z,96345.00
2023-04-16T12:05:28.675Z,96353.25
2023-04-16T12:08:05.130Z,96349.66
2023-04-16T12:10:36.233Z,96353.84
2023-04-16T12:13:13.975Z,96350.56
2023-04-16T12:15:47.073Z,96354.84
2023-04-16T12:18:16.334Z,96354.28
2023-04-16T12:20:45.628Z,96351.41
2023-04-16T12:23:26.239Z,96355.66
2023-04-16T12:25:55.218Z,96357.47
2023-04-16T12:28:31.970Z,96359.97
2023-04-16T12:31:01.233Z,96352.34
2023-04-16T12:33:30.358Z,96355.66
2023-04-16T12:35:59.181Z,96358.44
2023-04-16T12:38:29.935Z,96363.44
2023-04-16T12:40:58.459Z,96357.06
2023-04-16T12:43:27.088Z,96356.59
2023-04-16T12:45:55.492Z,96353.41
2023-04-16T12:48:24.299Z,96363.34
2023-04-16T12:50:55.175Z,96355.88
2023-04-16T12:53:23.657Z,96355.25
2023-04-16T12:55:53.358Z,96358.19
2023-04-16T12:58:21.802Z,96358.69
2023-04-16T13:00:50.471Z,96357.66
2023-04-16T13:03:21.029Z,96354.63
2023-04-16T13:05:50.211Z,96352.19
2023-04-16T13:08:18.773Z,96357.56
2023-04-16T13:10:47.898Z,96360.88
2023-04-16T13:13:17.918Z,96358.22
2023-04-16T13:15:46.483Z,96358.50
2023-04-16T13:18:16.422Z,96349.34
2023-04-16T13:20:44.987Z,96359.16
2023-04-16T13:23:15.745Z,96358.22
2023-04-16T13:25:44.354Z,96362.41
2023-04-16T13:28:13.210Z,96353.53
2023-04-16T13:30:43.048Z,96356.47
2023-04-16T13:33:15.450Z,96367.00
2023-04-16T13:35:43.841Z,96368.63
2023-04-16T13:38:14.133Z,96366.66
2023-04-16T13:40:42.550Z,96368.78
2023-04-16T13:43:12.723Z,96371.72
2023-04-16T13:45:42.461Z,96362.13
2023-04-16T13:48:12.722Z,96372.25
2023-04-16T13:50:41.147Z,96375.47
2023-04-16T13:53:09.618Z,96373.50
2023-04-16T13:55:38.184Z,96374.94
2023-04-16T13:58:07.218Z,96375.00
2023-04-16T14:00:36.024Z,96381.81
2023-04-16T14:03:06.920Z,96374.84
2023-04-16T14:05:35.404Z,96377.72
2023-04-16T14:08:03.778Z,96384.81
2023-04-16T14:10:32.799Z,96382.81
2023-04-16T14:13:01.284Z,96384.66
2023-04-16T14:15:29.993Z,96384.81
2023-04-16T14:17:59.382Z,96387.66
2023-04-16T14:20:29.170Z,96387.84
2023-04-16T14:22:57.619Z,96379.72
2023-04-16T14:25:26.286Z,96386.59
2023-04-16T14:27:55.109Z,96384.06
2023-04-16T14:30:23.472Z,96384.06
2023-04-16T14:32:52.086Z,96386.81
2023-04-16T14:35:21.423Z,96387.13
2023-04-16T14:37:57.036Z,96387.13
2023-04-16T14:40:25.490Z,96388.84
2023-04-16T14:42:53.885Z,96388.03
2023-04-16T14:45:25.387Z,96386.56
2023-04-16T14:47:53.943Z,96391.72
2023-04-16T14:50:22.317Z,96392.09
2023-04-16T14:52:51.797Z,96394.22
2023-04-16T14:55:21.667Z,96389.63
2023-04-16T14:57:53.305Z,96388.53
2023-04-16T15:00:22.904Z,96392.72
2023-04-16T15:02:51.694Z,96403.75
2023-04-16T15:05:20.450Z,96404.28
2023-04-16T15:07:49.805Z,96396.16
2023-04-16T15:10:18.260Z,96393.00
2023-04-16T15:12:49.144Z,96403.31
2023-04-16T15:15:17.676Z,96412.41
2023-04-16T15:17:57.067Z,96402.22
2023-04-16T15:20:27.843Z,96404.03
2023-04-16T15:22:56.847Z,96403.63
2023-04-16T15:25:25.624Z,96406.16
2023-04-16T15:27:55.919Z,96402.09
2023-04-16T15:30:29.293Z,96409.56
2023-04-16T15:32:57.903Z,96402.50
2023-04-16T15:35:26.449Z,96410.63
2023-04-16T15:37:55.319Z,96413.28
2023-04-16T15:40:23.853Z,96418.63
2023-04-16T15:42:52.365Z,96420.41
2023-04-16T15:45:22.558Z,96421.19
2023-04-16T15:47:51.589Z,96419.22
2023-04-16T15:50:20.839Z,96421.56
2023-04-16T15:52:49.310Z,96424.88
2023-04-16T15:55:19.476Z,96424.88
2023-04-16T15:57:47.830Z,96428.84
2023-04-16T16:00:19.762Z,96433.31
2023-04-16T16:02:49.635Z,96430.31
2023-04-16T16:05:18.669Z,96440.75
2023-04-16T16:07:47.204Z,96432.81
2023-04-16T16:10:17.041Z,96433.47
2023-04-16T16:12:46.761Z,96435.59
2023-04-16T16:15:16.690Z,96441.59
2023-04-16T16:17:45.163Z,96436.72
2023-04-16T16:20:15.951Z,96436.56
2023-04-16T16:22:46.502Z,96440.72
2023-04-16T16:25:16.680Z,96440.72
2023-04-16T16:27:45.101Z,96447.03
2023-04-16T16:30:15.420Z,96447.31
2023-04-16T16:32:44.468Z,96452.25
2023-04-16T16:35:15.145Z,96441.50
2023-04-16T16:37:43.731Z,96441.19
2023-04-16T16:40:12.709Z,96443.84
2023-04-16T16:42:41.217Z,96441.00
2023-04-16T16:45:11.040Z,96443.34
2023-04-16T16:47:39.731Z,96446.78
2023-04-16T16:50:11.390Z,96439.34
2023-04-16T16:52:41.307Z,96450.75
2023-04-16T16:55:11.151Z,96445.97
2023-04-16T16:57:41.205Z,96443.34
2023-04-16T17:00:17.453Z,96447.59
2023-04-16T17:02:45.979Z,96446.09
2023-04-16T17:05:17.224Z,96448.06
2023-04-16T17:07:47.221Z,96446.44
2023-04-16T17:10:20.140Z,96447.91
2023-04-16T17:12:51.168Z,96452.00
2023-04-16T17:15:21.747Z,96452.31
2023-04-16T17:17:50.929Z,96460.75
2023-04-16T17:20:20.083Z,96456.25
2023-04-16T17:22:51.171Z,96463.16
2023-04-16T17:25:19.770Z,96457.03
2023-04-16T17:27:55.095Z,96462.94
2023-04-16T17:30:25.868Z,96454.00
2023-04-16T17:32:54.456Z,96467.69
2023-04-16T17:35:23.133Z,96468.13
2023-04-16T17:37:52.950Z,96462.50
2023-04-16T17:40:21.406Z,96468.59
2023-04-16T17:42:51.313Z,96463.97
2023-04-16T17:45:19.961Z,96466.38
2023-04-16T17:47:48.465Z,96475.44
2023-04-16T17:50:17.016Z,96474.94
2023-04-16T17:52:47.228Z,96480.19
2023-04-16T17:55:17.006Z,96477.19
2023-04-16T17:57:45.844Z,96479.16
2023-04-16T18:00:16.141Z,96473.16
2023-04-16T18:02:45.408Z,96474.47
2023-04-16T18:05:14.004Z,96476.56
2023-04-16T18:07:43.761Z,96483.94
2023-04-16T18:10:12.224Z,96490.38
2023-04-16T18:12:42.505Z,96485.91
2023-04-16T18:15:11.906Z,96490.66
2023-04-16T18:17:40.579Z,96494.31
2023-04-16T18:20:11.754Z,96491.00
2023-04-16T18:22:40.180Z,96504.19
2023-04-16T18:25:09.177Z,96496.63
2023-04-16T18:27:37.719Z,96509.03
2023-04-16T18:32:46.814Z,96513.25
2023-04-16T18:35:23.638Z,96512.97
2023-04-16T18:37:52.253Z,96517.38
2023-04-16T18:40:20.833Z,96522.66
2023-04-16T18:42:49.186Z,96512.25
2023-04-16T18:45:21.997Z,96520.19
2023-04-16T18:47:50.905Z,96528.94
2023-04-16T18:50:19.543Z,96534.91
2023-04-16T18:52:47.961Z,96535.41
2023-04-16T18:55:17.383Z,96535.09
2023-04-16T18:57:45.985Z,96543.88
2023-04-16T19:00:16.667Z,96538.59
2023-04-16T19:02:56.450Z,96550.50
2023-04-16T19:05:25.030Z,96546.03
2023-04-16T19:07:54.225Z,96545.88
2023-04-16T19:10:22.596Z,96551.97
2023-04-16T19:12:50.996Z,96556.25
2023-04-16T19:15:19.498Z,96552.66
2023-04-16T19:17:49.463Z,96545.41
2023-04-16T19:20:20.242Z,96553.47
2023-04-16T19:22:48.667Z,96548.00
2023-04-16T19:25:19.042Z,96546.13
2023-04-16T19:27:47.525Z,96552.53
2023-04-16T19:30:17.567Z,96547.75
2023-04-16T19:32:46.420Z,96551.78
2023-04-16T19:35:15.095Z,96552.13
2023-04-16T19:37:44.988Z,96552.94
2023-04-16T19:40:13.584Z,96551.16
2023-04-16T19:42:41.972Z,96557.34
2023-04-16T19:45:10.613Z,96563.09
2023-04-16T19:47:39.110Z,96566.41
2023-04-16T19:50:08.652Z,96576.50
2023-04-16T19:52:38.984Z,96578.00
2023-04-16T19:55:10.513Z,96576.88
2023-04-16T19:57:38.927Z,96574.25
2023-04-16T20:00:15.112Z,96575.22
2023-04-16T20:02:44.266Z,96577.84
2023-04-16T20:05:12.714Z,96576.19
2023-04-16T20:07:41.174Z,96574.69
2023-04-16T20:10:11.843Z,96582.91
2023-04-16T20:12:51.006Z,96581.25
2023-04-16T20:15:19.439Z,96573.03
2023-04-16T20:17:47.935Z,96576.50
2023-04-16T20:20:17.783Z,96564.97
2023-04-16T20:22:46.214Z,96567.22
2023-04-16T20:25:19.140Z,96563.09
2023-04-16T20:27:47.693Z,96565.56
2023-04-16T20:30:17.399Z,96561.97
2023-04-16T20:32:45.924Z,96562.78
2023-04-16T20:35:14.340Z,96555.00
2023-04-16T20:37:43.052Z,96563.25
2023-04-16T20:40:13.914Z,96557.97
2023-04-16T20:42:46.082Z,96556.97
2023-04-16T20:45:14.830Z,96554.19
2023-04-16T20:47:44.438Z,96562.78
2023-04-16T20:50:13.610Z,96558.16
2023-04-16T20:52:52.044Z,96562.34
2023-04-16T20:55:20.809Z,96564.13
2023-04-16T20:57:50.947Z,96566.75
2023-04-16T21:00:20.843Z,96563.97
2023-04-16T21:02:49.334Z,96569.94
2023-04-16T21:05:19.030Z,96570.94
2023-04-16T21:07:47.901Z,96568.59
2023-04-16T21:10:20.202Z,96562.34
2023-04-16T21:13:00.248Z,96564.13
2023-04-16T21:15:28.702Z,96559.53
2023-04-16T21:17:57.146Z,96568.28
2023-04-16T21:20:25.601Z,96565.66
2023-04-16T21:22:56.826Z,96569.25
2023-04-16T21:25:25.489Z,96566.41
2023-04-16T21:27:53.878Z,96568.13
2023-04-16T21:30:23.885Z,96568.69
2023-04-16T21:32:52.346Z,96565.44
2023-04-16T21:35:21.061Z,96571.16
2023-04-16T21:37:53.800Z,96571.16
2023-04-16T21:40:22.405Z,96571.53
2023-04-16T21:42:51.003Z,96568.44
2023-04-16T21:45:20.770Z,96565.19
2023-04-16T21:47:50.613Z,96561.44
2023-04-16T21:50:21.408Z,96555.09
2023-04-16T21:52:49.872Z,96566.56
2023-04-16T21:55:25.926Z,96568.84
2023-04-16T21:57:54.354Z,96564.53
2023-04-16T22:00:22.758Z,96567.84
2023-04-16T22:02:55.922Z,96564.06
2023-04-16T22:05:24.548Z,96563.91
2023-04-16T22:07:53.789Z,96564.91
2023-04-16T22:10:22.768Z,96564.91
2023-04-16T22:12:53.626Z,96561.28
2023-04-16T22:15:22.245Z,96564.59
2023-04-16T22:17:50.788Z,96567.41
2023-04-16T22:20:22.195Z,96567.69
2023-04-16T22:22:52.726Z,96569.78
2023-04-16T22:25:21.627Z,96566.75
2023-04-16T22:27:49.991Z,96568.69
2023-04-16T22:30:21.558Z,96566.22
2023-04-16T22:32:51.673Z,96565.38
2023-04-16T22:35:22.325Z,96570.50
2023-04-16T22:37:50.711Z,96568.41
2023-04-16T22:40:21.635Z,96570.22
2023-04-16T22:42:50.277Z,96571.88
2023-04-16T22:45:19.235Z,96573.16
2023-04-16T22:47:47.691Z,96573.16
2023-04-16T22:50:16.098Z,96568.19
2023-04-16T22:52:45.838Z,96563.19
2023-04-16T22:55:14.228Z,96572.25
2023-04-16T22:57:42.722Z,96566.31
2023-04-16T23:00:15.999Z,96563.94
2023-04-16T23:02:51.644Z,96564.75
2023-04-16T23:05:21.825Z,96568.75
2023-04-16T23:07:51.571Z,96554.75
2023-04-16T23:10:21.968Z,96561.03
2023-04-16T23:12:50.374Z,96562.97
2023-04-16T23:15:21.527Z,96563.94
2023-04-16T23:17:49.980Z,96567.41
2023-04-16T23:20:21.484Z,96558.00
2023-04-16T23:22:52.734Z,96559.94
2023-04-16T23:25:23.612Z,96558.44
2023-04-16T23:27:52.069Z,96557.59
2023-04-16T23:30:22.237Z,96553.59
2023-04-16T23:32:50.510Z,96552.94
2023-04-16T23:35:22.802Z,96555.47
2023-04-16T23:38:02.800Z,96550.41
2023-04-16T23:40:31.591Z,96553.19
2023-04-16T23:42:59.974Z,96554.16
2023-04-16T23:45:28.330Z,96556.66
2023-04-16T23:47:56.766Z,96556.94
2023-04-16T23:50:25.220Z,96558.22
2023-04-16T23:53:00.227Z,96555.59
2023-04-16T23:55:29.936Z,96554.22
2023-04-16T23:57:58.270Z,96544.00
